Providence, Rhode Island
Traffic Map
Current Weather Conditions
Providence, Rhode Island
Overcast
Overcast
58°
Feels Like: 58°
Wind Chill: 58° Ceiling: 2300
Heat Index: 58° Visibility: 10mi
Dew Point: 48° Wind: 15mph
Humidity: 70% Direction: 40° (NE)
Pressure: 30.57in Gusts: 0mph
Raw Report DataKPVD 241651Z 04013KT 10SM OVC023 14/09 A3057 RMK AO2 SLP353 T01440089
Traffic Incident Summary
Active as of:
Severity:
Category:
InformationThere was an issue retrieving the traffic information for this location. Please try a different location or try again shortly.
Advertisements